Time;durP1;ratioP1;P1;durP2;ratioP2;P2;SDS_P1;SDS_P2;PMS_P1;PMS_P2;Temp;Humidity;BMP_temperature;BMP_pressure;BME280_temperature;BME280_humidity;BME280_pressure;Samples;Min_cycle;Max_cycle;Signal;HPM_P1;HPM_P2
2022/08/02 00:01:40;;;;;;;7.47;2.70;;;;;;;;;;5074686;28;20058;-73
2022/08/02 00:04:07;;;;;;;5.95;2.60;;;;;;;;;;5108456;28;20040;-73
2022/08/02 00:06:33;;;;;;;7.60;3.33;;;;;;;;;;5088909;28;20408;-73
2022/08/02 00:08:59;;;;;;;9.20;3.38;;;;;;;;;;5106894;28;20059;-73
2022/08/02 00:11:25;;;;;;;11.48;3.15;;;;;;;;;;5092485;28;20167;-73
2022/08/02 00:13:52;;;;;;;6.05;3.08;;;;;;;;;;5108352;28;20075;-73
2022/08/02 00:16:18;;;;;;;7.22;4.32;;;;;;;;;;5074104;28;20040;-73
2022/08/02 00:18:44;;;;;;;6.15;2.72;;;;;;;;;;5091294;28;20051;-72
2022/08/02 00:21:10;;;;;;;8.65;2.88;;;;;;;;;;5107037;28;20036;-73
2022/08/02 00:23:37;;;;;;;5.13;2.42;;;;;;;;;;5108199;28;20077;-73
2022/08/02 00:26:03;;;;;;;7.90;3.63;;;;;;;;;;5073871;28;20036;-73
2022/08/02 00:28:29;;;;;;;7.03;2.47;;;;;;;;;;5107973;28;20048;-73
2022/08/02 00:30:56;;;;;;;6.68;3.20;;;;;;;;;;5088823;28;20200;-73
2022/08/02 00:33:23;;;;;;;8.95;3.65;;;;;;;;;;5093891;28;20044;-73
2022/08/02 00:35:49;;;;;;;7.18;2.92;;;;;;;;;;5102198;28;20093;-73
2022/08/02 00:38:15;;;;;;;10.35;3.70;;;;;;;;;;5107659;28;20043;-73
2022/08/02 00:40:46;;;;;;;6.13;3.40;;;;;;;;;;5090781;28;20482;-73
2022/08/02 00:43:12;;;;;;;6.25;3.70;;;;;;;;;;5077372;28;20044;-73
2022/08/02 00:45:39;;;;;;;6.80;3.55;;;;;;;;;;5104618;28;20509;-73
2022/08/02 00:48:06;;;;;;;8.30;3.08;;;;;;;;;;5104376;28;20039;-73
2022/08/02 00:50:33;;;;;;;10.82;3.78;;;;;;;;;;5071525;28;20443;-73
2022/08/02 00:52:59;;;;;;;6.50;2.75;;;;;;;;;;5090412;28;20046;-73
2022/08/02 00:55:26;;;;;;;9.00;3.42;;;;;;;;;;5086480;28;20044;-73
2022/08/02 00:57:52;;;;;;;7.57;3.58;;;;;;;;;;5083982;28;20051;-73
2022/08/02 01:00:19;;;;;;;5.60;2.78;;;;;;;;;;5091239;28;20502;-73
2022/08/02 01:02:45;;;;;;;10.05;3.53;;;;;;;;;;5090718;28;20086;-73
2022/08/02 01:05:12;;;;;;;6.20;2.80;;;;;;;;;;5105762;28;20063;-73
2022/08/02 01:07:38;;;;;;;5.78;2.95;;;;;;;;;;5090655;28;20437;-73
2022/08/02 01:10:05;;;;;;;11.57;3.53;;;;;;;;;;5073730;28;20035;-73
2022/08/02 01:12:31;;;;;;;5.22;2.35;;;;;;;;;;5107310;28;20051;-73
2022/08/02 01:14:59;;;;;;;7.38;3.30;;;;;;;;;;5106774;28;20043;-73
2022/08/02 01:17:34;;;;;;;5.40;3.05;;;;;;;;;;5073925;28;20503;-72
2022/08/02 01:20:06;;;;;;;8.50;3.58;;;;;;;;;;5092929;28;20044;-73
2022/08/02 01:22:45;;;;;;;4.90;2.90;;;;;;;;;;5107342;28;20493;-73
2022/08/02 01:25:26;;;;;;;4.90;3.00;;;;;;;;;;5089531;28;20044;-73
2022/08/02 01:28:21;;;;;;;13.50;3.63;;;;;;;;;;5106836;28;20361;-73
2022/08/02 01:30:50;;;;;;;5.88;3.55;;;;;;;;;;5089345;28;20039;-73
2022/08/02 01:33:17;;;;;;;6.03;3.47;;;;;;;;;;5096389;28;20032;-73
2022/08/02 01:35:45;;;;;;;8.40;3.63;;;;;;;;;;5095646;28;20036;-73
2022/08/02 01:38:14;;;;;;;11.15;3.85;;;;;;;;;;5089328;28;20045;-73
2022/08/02 01:40:41;;;;;;;6.97;3.10;;;;;;;;;;5086704;28;20400;-73
2022/08/02 01:43:08;;;;;;;8.05;3.95;;;;;;;;;;5063878;28;20072;-73
2022/08/02 01:45:35;;;;;;;10.20;3.97;;;;;;;;;;5103221;28;20106;-73
2022/08/02 01:48:03;;;;;;;5.68;3.08;;;;;;;;;;5088675;28;20067;-73
2022/08/02 01:50:32;;;;;;;10.18;3.78;;;;;;;;;;5066291;28;20036;-73
2022/08/02 01:52:59;;;;;;;4.90;3.38;;;;;;;;;;5084913;28;20046;-73
2022/08/02 01:55:28;;;;;;;6.35;3.35;;;;;;;;;;5077122;28;20083;-73
2022/08/02 01:57:59;;;;;;;9.73;4.22;;;;;;;;;;5081125;28;20493;-73
2022/08/02 02:00:28;;;;;;;5.93;4.00;;;;;;;;;;5088419;28;20425;-73
2022/08/02 02:02:57;;;;;;;5.32;3.08;;;;;;;;;;5091051;28;20089;-73
2022/08/02 02:05:24;;;;;;;9.68;4.03;;;;;;;;;;5088309;28;20477;-73
2022/08/02 02:07:51;;;;;;;6.95;3.90;;;;;;;;;;5072506;28;20040;-73
2022/08/02 02:10:20;;;;;;;6.10;3.70;;;;;;;;;;5088416;28;20089;-73
2022/08/02 02:12:48;;;;;;;6.20;2.85;;;;;;;;;;5071818;28;20035;-73
2022/08/02 02:15:15;;;;;;;10.38;3.22;;;;;;;;;;5105681;28;20258;-73
2022/08/02 02:17:42;;;;;;;7.78;3.58;;;;;;;;;;5072576;28;20047;-73
2022/08/02 02:20:11;;;;;;;8.63;3.03;;;;;;;;;;5087879;28;20493;-73
2022/08/02 02:22:37;;;;;;;9.00;3.30;;;;;;;;;;5072143;28;20032;-73
2022/08/02 02:25:04;;;;;;;10.13;3.67;;;;;;;;;;5105502;28;20040;-73
2022/08/02 02:27:30;;;;;;;8.25;3.25;;;;;;;;;;5091849;28;20036;-73
2022/08/02 02:29:56;;;;;;;8.80;2.80;;;;;;;;;;5102871;28;20468;-73
2022/08/02 02:32:24;;;;;;;12.57;3.47;;;;;;;;;;5106096;28;20043;-73
2022/08/02 02:34:51;;;;;;;8.68;3.17;;;;;;;;;;5098400;28;20039;-73
2022/08/02 02:37:21;;;;;;;7.70;3.15;;;;;;;;;;5087720;28;20048;-73
2022/08/02 02:39:53;;;;;;;8.18;2.83;;;;;;;;;;5088645;28;20107;-74
2022/08/02 02:42:21;;;;;;;8.88;3.47;;;;;;;;;;5090167;28;20039;-73
2022/08/02 02:44:48;;;;;;;6.97;3.13;;;;;;;;;;5099230;28;20039;-73
2022/08/02 02:47:15;;;;;;;7.13;3.05;;;;;;;;;;5099120;28;20474;-73
2022/08/02 02:49:42;;;;;;;8.07;3.58;;;;;;;;;;5089336;28;20082;-73
2022/08/02 02:52:09;;;;;;;6.78;2.90;;;;;;;;;;5104183;28;20044;-73
2022/08/02 02:54:36;;;;;;;5.93;3.38;;;;;;;;;;5105010;28;20052;-73
2022/08/02 02:57:04;;;;;;;6.72;2.97;;;;;;;;;;5071605;28;20043;-73
2022/08/02 02:59:30;;;;;;;7.35;2.92;;;;;;;;;;5071362;28;20075;-73
2022/08/02 03:01:57;;;;;;;5.97;3.05;;;;;;;;;;5087737;28;20051;-73
2022/08/02 03:04:23;;;;;;;5.00;3.25;;;;;;;;;;5105206;28;20039;-74
2022/08/02 03:06:49;;;;;;;8.88;3.85;;;;;;;;;;5070308;28;20088;-73
2022/08/02 03:09:16;;;;;;;5.32;3.47;;;;;;;;;;5089463;28;20089;-73
2022/08/02 03:11:42;;;;;;;8.75;3.53;;;;;;;;;;5088219;28;20477;-73
2022/08/02 03:14:09;;;;;;;8.55;3.08;;;;;;;;;;5088111;28;20032;-73
2022/08/02 03:16:42;;;;;;;8.70;4.03;;;;;;;;;;5101894;28;20044;-73
2022/08/02 03:19:08;;;;;;;9.15;3.50;;;;;;;;;;5095225;28;20048;-73
2022/08/02 03:21:34;;;;;;;11.55;4.28;;;;;;;;;;5070069;28;20040;-74
2022/08/02 03:24:01;;;;;;;7.50;3.45;;;;;;;;;;5089550;28;20115;-73
2022/08/02 03:26:27;;;;;;;6.07;3.38;;;;;;;;;;5089343;28;20032;-73
2022/08/02 03:28:54;;;;;;;7.00;3.42;;;;;;;;;;5089315;28;20044;-73
2022/08/02 03:31:20;;;;;;;6.55;3.17;;;;;;;;;;5071107;28;20086;-73
2022/08/02 03:33:46;;;;;;;6.63;3.35;;;;;;;;;;5097573;28;20040;-73
2022/08/02 03:36:14;;;;;;;11.93;3.58;;;;;;;;;;5082158;28;20073;-73
2022/08/02 03:38:41;;;;;;;10.07;3.42;;;;;;;;;;5089141;28;20044;-73
2022/08/02 03:41:09;;;;;;;11.80;3.55;;;;;;;;;;5071239;28;20044;-73
2022/08/02 03:43:36;;;;;;;8.57;4.38;;;;;;;;;;5104264;28;20051;-73
2022/08/02 03:46:03;;;;;;;5.05;2.85;;;;;;;;;;5070882;28;20048;-73
2022/08/02 03:48:29;;;;;;;8.52;3.78;;;;;;;;;;5088916;28;20488;-73
2022/08/02 03:50:56;;;;;;;10.45;4.22;;;;;;;;;;5069994;28;20390;-73
2022/08/02 03:53:22;;;;;;;9.88;3.47;;;;;;;;;;5104204;28;20083;-73
2022/08/02 03:55:49;;;;;;;9.45;3.40;;;;;;;;;;5088997;28;20044;-73
2022/08/02 03:58:19;;;;;;;10.65;3.75;;;;;;;;;;5103155;28;20139;-73
2022/08/02 04:00:45;;;;;;;5.32;3.55;;;;;;;;;;5103519;28;20173;-73
2022/08/02 04:03:11;;;;;;;11.10;3.95;;;;;;;;;;5087941;28;20049;-73
2022/08/02 04:05:38;;;;;;;7.18;3.80;;;;;;;;;;5086148;28;20032;-74
2022/08/02 04:08:04;;;;;;;9.38;4.03;;;;;;;;;;5104310;28;20047;-73
2022/08/02 04:10:30;;;;;;;6.85;3.80;;;;;;;;;;5088754;28;20046;-73
2022/08/02 04:12:57;;;;;;;8.75;3.83;;;;;;;;;;5104137;28;20048;-73
2022/08/02 04:15:26;;;;;;;7.43;3.90;;;;;;;;;;5061587;28;20045;-73
2022/08/02 04:17:56;;;;;;;8.07;3.88;;;;;;;;;;5085471;28;20097;-73
2022/08/02 04:20:27;;;;;;;8.75;4.38;;;;;;;;;;5070123;28;20035;-73
2022/08/02 04:22:53;;;;;;;8.57;3.72;;;;;;;;;;5105910;28;20073;-73
2022/08/02 04:25:20;;;;;;;16.00;4.13;;;;;;;;;;5072371;28;20557;-73
2022/08/02 04:27:46;;;;;;;6.38;3.50;;;;;;;;;;5090347;28;20693;-73
2022/08/02 04:30:14;;;;;;;10.07;4.63;;;;;;;;;;5070140;28;20079;-73
2022/08/02 04:32:40;;;;;;;7.25;3.65;;;;;;;;;;5099971;28;20533;-73
2022/08/02 04:35:07;;;;;;;8.95;4.10;;;;;;;;;;5101671;28;20176;-73
2022/08/02 04:37:34;;;;;;;9.70;3.92;;;;;;;;;;5056797;28;20277;-73
2022/08/02 04:40:00;;;;;;;9.07;4.18;;;;;;;;;;5076645;28;20173;-73
2022/08/02 04:42:26;;;;;;;8.65;3.88;;;;;;;;;;5074194;28;20044;-74
2022/08/02 04:44:52;;;;;;;11.77;4.65;;;;;;;;;;5090564;28;20059;-73
2022/08/02 04:47:19;;;;;;;6.20;3.53;;;;;;;;;;5101395;28;20036;-73
2022/08/02 04:49:46;;;;;;;10.90;3.70;;;;;;;;;;5073343;28;20044;-73
2022/08/02 04:52:13;;;;;;;9.43;3.90;;;;;;;;;;5091974;28;20493;-73
2022/08/02 04:54:39;;;;;;;11.05;4.05;;;;;;;;;;5107107;28;20512;-74
2022/08/02 04:57:53;;;;;;;7.65;3.70;;;;;;;;;;5107373;28;20032;-73
2022/08/02 04:59:51;;;;;;;9.73;3.95;;;;;;;;;;5085783;28;20067;-73
2022/08/02 05:02:17;;;;;;;9.55;3.40;;;;;;;;;;5091021;28;20526;-73
2022/08/02 05:04:43;;;;;;;6.78;3.35;;;;;;;;;;5106746;28;20079;-73
2022/08/02 05:07:09;;;;;;;12.50;5.22;;;;;;;;;;5072771;28;20147;-73
2022/08/02 05:09:36;;;;;;;6.28;3.72;;;;;;;;;;5091739;28;20444;-74
2022/08/02 05:12:02;;;;;;;4.97;3.75;;;;;;;;;;5107308;28;20481;-73
2022/08/02 05:14:28;;;;;;;7.45;4.72;;;;;;;;;;5090526;28;20612;-73
2022/08/02 05:16:54;;;;;;;5.25;3.47;;;;;;;;;;5090118;28;20075;-73
2022/08/02 05:19:21;;;;;;;13.70;3.92;;;;;;;;;;5096985;28;20052;-73
2022/08/02 05:21:47;;;;;;;5.28;3.22;;;;;;;;;;5105602;28;20036;-73
2022/08/02 05:24:13;;;;;;;10.07;4.55;;;;;;;;;;5073770;28;20449;-73
2022/08/02 05:26:39;;;;;;;7.43;4.05;;;;;;;;;;5104154;28;20086;-73
2022/08/02 05:29:06;;;;;;;9.80;4.50;;;;;;;;;;5103033;28;20048;-73
2022/08/02 05:31:32;;;;;;;10.30;4.60;;;;;;;;;;5070747;28;20071;-73
2022/08/02 05:33:58;;;;;;;6.07;3.75;;;;;;;;;;5105711;28;20039;-73
2022/08/02 05:36:24;;;;;;;6.90;3.85;;;;;;;;;;5102466;28;20102;-73
2022/08/02 05:38:50;;;;;;;5.53;3.65;;;;;;;;;;5087415;28;20075;-73
2022/08/02 05:41:18;;;;;;;13.48;4.15;;;;;;;;;;5105112;28;20043;-73
2022/08/02 05:43:44;;;;;;;6.10;3.60;;;;;;;;;;5106008;28;20040;-74
2022/08/02 05:46:10;;;;;;;8.43;4.07;;;;;;;;;;5103408;28;20115;-74
2022/08/02 05:48:37;;;;;;;10.00;4.70;;;;;;;;;;5104759;28;20043;-74
2022/08/02 05:51:04;;;;;;;7.15;3.70;;;;;;;;;;5103897;28;20047;-73
2022/08/02 05:53:56;;;;;;;6.57;4.50;;;;;;;;;;5089324;28;20055;-73
2022/08/02 05:56:22;;;;;;;8.90;4.00;;;;;;;;;;5062211;28;20032;-73
2022/08/02 05:58:50;;;;;;;7.72;4.32;;;;;;;;;;5087642;28;20097;-73
2022/08/02 06:01:20;;;;;;;7.07;3.58;;;;;;;;;;5083791;28;20051;-73
2022/08/02 06:03:51;;;;;;;7.78;3.75;;;;;;;;;;5098644;28;20097;-73
2022/08/02 06:06:22;;;;;;;5.50;3.45;;;;;;;;;;5096752;28;20078;-73
2022/08/02 06:08:50;;;;;;;5.20;3.17;;;;;;;;;;5097020;28;20036;-73
2022/08/02 06:11:17;;;;;;;9.93;3.22;;;;;;;;;;5083333;28;20050;-73
2022/08/02 06:13:45;;;;;;;6.47;4.13;;;;;;;;;;5101785;28;20048;-73
2022/08/02 06:16:11;;;;;;;7.93;4.00;;;;;;;;;;5105287;28;20465;-73
2022/08/02 06:18:40;;;;;;;7.82;3.33;;;;;;;;;;5090268;28;20040;-73
2022/08/02 06:21:07;;;;;;;7.30;3.42;;;;;;;;;;5102880;28;20036;-73
2022/08/02 06:23:39;;;;;;;10.00;4.18;;;;;;;;;;5105290;28;20036;-73
2022/08/02 06:26:06;;;;;;;7.82;3.78;;;;;;;;;;5087199;28;20067;-73
2022/08/02 06:28:33;;;;;;;9.23;4.00;;;;;;;;;;5088622;28;20116;-73
2022/08/02 06:30:59;;;;;;;7.30;4.13;;;;;;;;;;5086399;28;20044;-73
2022/08/02 06:33:25;;;;;;;6.85;3.42;;;;;;;;;;5104924;28;20043;-73
2022/08/02 06:36:01;;;;;;;7.20;3.38;;;;;;;;;;5085320;28;20036;-74
2022/08/02 06:38:32;;;;;;;4.97;3.65;;;;;;;;;;5084036;28;20500;-73
2022/08/02 06:40:58;;;;;;;10.18;3.45;;;;;;;;;;5086994;28;20661;-73
2022/08/02 06:43:44;;;;;;;6.30;3.15;;;;;;;;;;5101092;28;20115;-73
2022/08/02 06:46:11;;;;;;;5.40;3.70;;;;;;;;;;5061130;28;20058;-73
2022/08/02 06:48:37;;;;;;;4.20;2.78;;;;;;;;;;5102735;28;20036;-73
2022/08/02 06:51:03;;;;;;;14.45;3.50;;;;;;;;;;5082483;28;20046;-73
2022/08/02 06:53:30;;;;;;;6.82;2.70;;;;;;;;;;5105444;28;20083;-72
2022/08/02 06:55:56;;;;;;;5.18;2.70;;;;;;;;;;5071513;28;20048;-73
2022/08/02 06:58:22;;;;;;;5.47;2.72;;;;;;;;;;5079866;28;20045;-73
2022/08/02 07:00:48;;;;;;;7.47;2.88;;;;;;;;;;5087710;28;20666;-73
2022/08/02 07:03:14;;;;;;;6.80;2.60;;;;;;;;;;5090410;28;20071;-73
2022/08/02 07:05:44;;;;;;;6.78;2.95;;;;;;;;;;5103285;28;20035;-74
2022/08/02 07:08:10;;;;;;;7.95;3.30;;;;;;;;;;5088136;28;20051;-74
2022/08/02 07:10:36;;;;;;;7.47;3.45;;;;;;;;;;5096106;28;20032;-72
2022/08/02 07:13:02;;;;;;;7.35;2.72;;;;;;;;;;5097472;28;20054;-73
2022/08/02 07:15:29;;;;;;;5.38;2.60;;;;;;;;;;5095056;28;20503;-73
2022/08/02 07:17:55;;;;;;;9.88;3.08;;;;;;;;;;5102961;28;20406;-73
2022/08/02 07:20:21;;;;;;;5.68;2.90;;;;;;;;;;5102547;28;20576;-73
2022/08/02 07:22:47;;;;;;;5.70;2.47;;;;;;;;;;5101858;28;20046;-73
2022/08/02 07:25:13;;;;;;;6.10;2.65;;;;;;;;;;5085794;28;20074;-73
2022/08/02 07:27:39;;;;;;;6.53;2.28;;;;;;;;;;5065453;28;20032;-73
2022/08/02 07:30:06;;;;;;;4.95;2.88;;;;;;;;;;5103443;28;20048;-73
2022/08/02 07:32:32;;;;;;;3.38;2.20;;;;;;;;;;5089518;28;20071;-73
2022/08/02 07:34:59;;;;;;;4.78;2.65;;;;;;;;;;5086860;28;20051;-73
2022/08/02 07:37:30;;;;;;;3.72;2.08;;;;;;;;;;5099745;28;20075;-74
2022/08/02 07:39:56;;;;;;;5.13;2.08;;;;;;;;;;5076177;28;20048;-73
2022/08/02 07:42:24;;;;;;;4.57;2.45;;;;;;;;;;5059125;28;20044;-73
2022/08/02 07:44:51;;;;;;;5.15;2.35;;;;;;;;;;5105308;28;20032;-73
2022/08/02 07:47:17;;;;;;;6.13;2.17;;;;;;;;;;5086389;28;20036;-73
2022/08/02 07:49:44;;;;;;;7.10;2.28;;;;;;;;;;5081224;28;20085;-73
2022/08/02 07:52:10;;;;;;;4.10;2.33;;;;;;;;;;5093581;28;20036;-73
2022/08/02 07:54:36;;;;;;;5.15;2.58;;;;;;;;;;5101527;28;20052;-73
2022/08/02 07:57:03;;;;;;;3.70;2.10;;;;;;;;;;5069379;28;20059;-73
2022/08/02 07:59:29;;;;;;;4.75;2.38;;;;;;;;;;5062935;28;20355;-73
2022/08/02 08:01:55;;;;;;;2.75;1.83;;;;;;;;;;5088614;28;20040;-73
2022/08/02 08:04:21;;;;;;;4.07;2.30;;;;;;;;;;5104161;28;20167;-73
2022/08/02 08:06:50;;;;;;;3.67;2.75;;;;;;;;;;5084032;28;20036;-73
2022/08/02 08:09:17;;;;;;;3.53;2.05;;;;;;;;;;5105234;28;20047;-73
2022/08/02 08:11:43;;;;;;;4.43;2.35;;;;;;;;;;5107832;28;20086;-74
2022/08/02 08:14:09;;;;;;;5.03;2.25;;;;;;;;;;5074559;28;20036;-74
2022/08/02 08:16:36;;;;;;;3.90;2.10;;;;;;;;;;5097303;28;20093;-73
2022/08/02 08:19:02;;;;;;;5.93;1.80;;;;;;;;;;5108258;28;20508;-73
2022/08/02 08:21:28;;;;;;;4.30;2.35;;;;;;;;;;5106487;28;20044;-73
2022/08/02 08:23:55;;;;;;;4.22;2.47;;;;;;;;;;5074974;28;20327;-73
2022/08/02 08:26:21;;;;;;;6.65;1.90;;;;;;;;;;5107412;28;20197;-73
2022/08/02 08:28:47;;;;;;;7.65;3.53;;;;;;;;;;5107626;28;20327;-73
2022/08/02 08:31:14;;;;;;;3.88;2.55;;;;;;;;;;5072318;28;20031;-74
2022/08/02 08:33:40;;;;;;;5.85;2.40;;;;;;;;;;5074454;28;20587;-73
2022/08/02 08:36:07;;;;;;;8.82;3.28;;;;;;;;;;5090021;28;20067;-74
2022/08/02 08:38:33;;;;;;;6.15;2.20;;;;;;;;;;5092543;28;20044;-74
2022/08/02 08:40:59;;;;;;;6.43;2.47;;;;;;;;;;5074043;28;20382;-74
2022/08/02 08:43:27;;;;;;;5.38;2.58;;;;;;;;;;5073697;28;20493;-74
2022/08/02 08:45:53;;;;;;;5.18;2.28;;;;;;;;;;5087717;28;20097;-73
2022/08/02 08:48:21;;;;;;;6.85;2.53;;;;;;;;;;5083185;28;20040;-74
2022/08/02 08:51:00;;;;;;;4.18;2.15;;;;;;;;;;5097361;28;20118;-74
2022/08/02 08:53:27;;;;;;;5.65;2.40;;;;;;;;;;5088173;28;20054;-74
2022/08/02 08:55:56;;;;;;;5.03;2.35;;;;;;;;;;5086646;28;20076;-73
2022/08/02 08:58:22;;;;;;;4.30;2.05;;;;;;;;;;5078456;28;20044;-73
2022/08/02 09:00:48;;;;;;;4.90;2.40;;;;;;;;;;5091098;28;20043;-73
2022/08/02 09:03:15;;;;;;;5.72;2.72;;;;;;;;;;5078294;28;20043;-73
2022/08/02 09:05:42;;;;;;;6.93;3.42;;;;;;;;;;5105744;28;20439;-74
2022/08/02 09:08:08;;;;;;;6.15;2.28;;;;;;;;;;5091255;28;20482;-74
2022/08/02 09:10:34;;;;;;;5.97;2.38;;;;;;;;;;5088358;28;20036;-73
2022/08/02 09:13:07;;;;;;;9.10;3.50;;;;;;;;;;5107246;28;20469;-73
2022/08/02 09:15:33;;;;;;;6.63;2.97;;;;;;;;;;5069093;28;20067;-74
2022/08/02 09:17:59;;;;;;;7.25;2.83;;;;;;;;;;5101314;28;20521;-73
2022/08/02 09:20:25;;;;;;;8.20;3.20;;;;;;;;;;5081497;28;20058;-73
2022/08/02 09:23:07;;;;;;;7.35;3.47;;;;;;;;;;5087329;28;20124;-73
2022/08/02 09:25:34;;;;;;;4.70;2.53;;;;;;;;;;5065343;28;20046;-74
2022/08/02 09:28:00;;;;;;;5.20;2.78;;;;;;;;;;5106476;28;20153;-74
2022/08/02 09:30:26;;;;;;;7.15;3.47;;;;;;;;;;5085704;28;20298;-74
2022/08/02 09:32:53;;;;;;;3.80;3.10;;;;;;;;;;5070029;28;20044;-74
2022/08/02 09:35:36;;;;;;;7.03;2.97;;;;;;;;;;5087203;28;20036;-74
2022/08/02 09:38:09;;;;;;;8.77;4.05;;;;;;;;;;5087495;28;20120;-74
2022/08/02 09:40:36;;;;;;;6.57;3.55;;;;;;;;;;5087007;28;20390;-75
2022/08/02 09:43:02;;;;;;;5.00;3.38;;;;;;;;;;5099967;28;20157;-74
2022/08/02 09:45:36;;;;;;;7.50;3.75;;;;;;;;;;5104059;28;20044;-74
2022/08/02 09:48:06;;;;;;;5.03;3.13;;;;;;;;;;5103401;28;20641;-74
2022/08/02 09:50:32;;;;;;;8.38;4.13;;;;;;;;;;5103951;28;20447;-73
2022/08/02 09:52:58;;;;;;;7.78;4.30;;;;;;;;;;5103858;28;20079;-74
2022/08/02 09:55:26;;;;;;;6.53;4.28;;;;;;;;;;5105447;28;20059;-74
2022/08/02 09:57:52;;;;;;;7.28;3.70;;;;;;;;;;5071247;28;21408;-73
2022/08/02 10:00:19;;;;;;;8.95;4.60;;;;;;;;;;5070446;28;20046;-74
2022/08/02 10:03:03;;;;;;;7.35;4.53;;;;;;;;;;5103611;28;20040;-74
2022/08/02 10:05:30;;;;;;;10.13;5.30;;;;;;;;;;5083427;28;20035;-74
2022/08/02 10:07:57;;;;;;;10.43;4.90;;;;;;;;;;5087614;28;20044;-74
2022/08/02 10:10:23;;;;;;;9.52;5.43;;;;;;;;;;5086721;28;20097;-75
2022/08/02 10:12:49;;;;;;;7.57;6.00;;;;;;;;;;5084137;28;20050;-74
2022/08/02 10:15:16;;;;;;;7.50;5.28;;;;;;;;;;5088340;28;20123;-75
2022/08/02 10:17:43;;;;;;;7.25;5.40;;;;;;;;;;5105297;28;20489;-74
2022/08/02 10:20:09;;;;;;;9.75;5.13;;;;;;;;;;5068453;28;20044;-74
2022/08/02 10:22:35;;;;;;;9.50;5.78;;;;;;;;;;5104652;28;20047;-74
2022/08/02 10:25:06;;;;;;;8.85;5.35;;;;;;;;;;5070097;28;20044;-74
2022/08/02 10:27:32;;;;;;;6.32;4.45;;;;;;;;;;5082245;28;20395;-74
2022/08/02 10:29:59;;;;;;;7.80;5.85;;;;;;;;;;5069755;28;20550;-74
2022/08/02 10:32:31;;;;;;;7.03;4.70;;;;;;;;;;5085511;28;20040;-74
2022/08/02 10:35:02;;;;;;;6.38;3.47;;;;;;;;;;5088657;28;20123;-75
2022/08/02 10:37:29;;;;;;;5.88;3.50;;;;;;;;;;5085881;28;20119;-74
2022/08/02 10:39:56;;;;;;;4.93;3.50;;;;;;;;;;5103137;28;20490;-74
2022/08/02 10:42:41;;;;;;;7.90;4.45;;;;;;;;;;5068346;28;20093;-75
2022/08/02 10:45:13;;;;;;;9.52;5.22;;;;;;;;;;5100988;28;20393;-74
2022/08/02 10:47:55;;;;;;;10.07;5.93;;;;;;;;;;5076270;28;20123;-75
2022/08/02 10:50:42;;;;;;;11.20;6.85;;;;;;;;;;5076241;28;20447;-74
2022/08/02 10:53:27;;;;;;;12.30;7.57;;;;;;;;;;5082295;28;20040;-75
2022/08/02 10:56:00;;;;;;;12.43;7.97;;;;;;;;;;5099462;28;20146;-75
2022/08/02 10:58:28;;;;;;;9.70;7.20;;;;;;;;;;5102821;28;21969;-75
2022/08/02 11:00:56;;;;;;;11.85;8.43;;;;;;;;;;5100698;28;20075;-74
2022/08/02 11:03:28;;;;;;;12.60;8.32;;;;;;;;;;5085985;28;20043;-75
2022/08/02 11:06:01;;;;;;;14.23;9.43;;;;;;;;;;5083501;28;20043;-74
2022/08/02 11:08:28;;;;;;;14.18;10.50;;;;;;;;;;5085966;28;20077;-75
2022/08/02 11:10:59;;;;;;;16.85;11.75;;;;;;;;;;5083815;28;20040;-74
2022/08/02 11:13:26;;;;;;;13.98;11.13;;;;;;;;;;5069155;28;20062;-74
2022/08/02 11:15:54;;;;;;;14.00;11.20;;;;;;;;;;5083023;28;20033;-76
2022/08/02 11:18:21;;;;;;;22.25;10.30;;;;;;;;;;5085419;28;20464;-75
2022/08/02 11:21:07;;;;;;;18.77;11.65;;;;;;;;;;5083516;28;20161;-75
2022/08/02 11:23:35;;;;;;;15.30;11.05;;;;;;;;;;5069366;28;20074;-74
2022/08/02 11:26:04;;;;;;;15.93;10.90;;;;;;;;;;5086951;28;20036;-76
2022/08/02 11:28:31;;;;;;;15.20;9.85;;;;;;;;;;5085384;28;20055;-74
2022/08/02 11:31:01;;;;;;;15.75;9.52;;;;;;;;;;5084931;28;20397;-75
2022/08/02 11:33:30;;;;;;;16.80;10.55;;;;;;;;;;5103983;28;20101;-74
2022/08/02 11:36:00;;;;;;;12.48;10.27;;;;;;;;;;5083226;28;20489;-74
2022/08/02 11:38:28;;;;;;;13.45;10.85;;;;;;;;;;5083375;28;20051;-74
2022/08/02 11:40:54;;;;;;;17.13;9.70;;;;;;;;;;5082560;28;20032;-74
2022/08/02 11:43:22;;;;;;;13.90;10.90;;;;;;;;;;5065914;28;20043;-75
2022/08/02 11:45:52;;;;;;;17.20;10.05;;;;;;;;;;5100726;28;20043;-75
2022/08/02 11:48:38;;;;;;;14.82;11.02;;;;;;;;;;5100337;28;20044;-74
2022/08/02 11:51:04;;;;;;;13.82;9.70;;;;;;;;;;5099175;28;20044;-74
2022/08/02 11:53:34;;;;;;;15.35;10.45;;;;;;;;;;5084262;28;20510;-75
2022/08/02 11:56:00;;;;;;;16.58;11.38;;;;;;;;;;5102092;28;20234;-74
2022/08/02 11:58:26;;;;;;;14.32;11.75;;;;;;;;;;5084749;28;20553;-74
2022/08/02 12:00:53;;;;;;;16.00;11.88;;;;;;;;;;5070199;28;20039;-74
2022/08/02 12:03:19;;;;;;;18.38;11.63;;;;;;;;;;5087850;28;20093;-75
2022/08/02 12:05:48;;;;;;;18.10;11.85;;;;;;;;;;5082155;28;20032;-75
2022/08/02 12:08:15;;;;;;;15.82;11.48;;;;;;;;;;5084783;28;20512;-75
2022/08/02 12:10:47;;;;;;;15.40;10.20;;;;;;;;;;5101876;28;20044;-75
2022/08/02 12:13:14;;;;;;;23.83;11.57;;;;;;;;;;5084810;28;20036;-75
2022/08/02 12:15:43;;;;;;;16.67;11.93;;;;;;;;;;5083883;28;20148;-75
2022/08/02 12:20:55;;;;;;;19.42;11.90;;;;;;;;;;5081224;28;20050;-74
2022/08/02 12:23:21;;;;;;;15.45;11.20;;;;;;;;;;5086780;28;20122;-74
2022/08/02 12:26:00;;;;;;;14.48;11.70;;;;;;;;;;5087619;28;20032;-74
2022/08/02 12:28:27;;;;;;;17.30;12.13;;;;;;;;;;5086254;28;20485;-74
2022/08/02 12:30:54;;;;;;;17.63;12.00;;;;;;;;;;5083100;28;20036;-74
2022/08/02 12:33:21;;;;;;;17.05;12.07;;;;;;;;;;5086575;28;20579;-74
2022/08/02 12:35:47;;;;;;;16.58;13.07;;;;;;;;;;5089927;28;20089;-74
2022/08/02 12:38:13;;;;;;;19.65;11.93;;;;;;;;;;5086938;28;20446;-74
2022/08/02 12:40:40;;;;;;;23.27;13.38;;;;;;;;;;5103202;28;20482;-74
2022/08/02 12:43:07;;;;;;;16.05;11.77;;;;;;;;;;5084909;28;20101;-74
2022/08/02 12:45:47;;;;;;;15.52;11.50;;;;;;;;;;5084779;28;20390;-74
2022/08/02 12:48:13;;;;;;;15.65;12.82;;;;;;;;;;5068703;28;20496;-74
2022/08/02 12:50:39;;;;;;;19.85;13.52;;;;;;;;;;5081413;28;20079;-74
2022/08/02 12:53:07;;;;;;;18.05;13.13;;;;;;;;;;5083659;28;20694;-74
2022/08/02 12:55:36;;;;;;;17.17;12.23;;;;;;;;;;5066884;28;20189;-74
2022/08/02 12:58:04;;;;;;;18.02;13.00;;;;;;;;;;5078945;28;20123;-74
2022/08/02 13:00:30;;;;;;;19.45;12.18;;;;;;;;;;5083868;28;20043;-74
2022/08/02 13:02:56;;;;;;;16.45;12.20;;;;;;;;;;5086058;28;20039;-74
2022/08/02 13:05:23;;;;;;;19.73;13.35;;;;;;;;;;5079680;28;20047;-74
2022/08/02 13:07:49;;;;;;;20.90;12.77;;;;;;;;;;5084527;28;20036;-74
2022/08/02 13:10:16;;;;;;;18.52;13.75;;;;;;;;;;5085523;28;20466;-74
2022/08/02 13:12:42;;;;;;;19.15;13.77;;;;;;;;;;5082156;28;20043;-74
2022/08/02 13:15:09;;;;;;;17.52;13.00;;;;;;;;;;5097930;28;20052;-74
2022/08/02 13:17:36;;;;;;;20.52;13.43;;;;;;;;;;5084957;28;20047;-74
2022/08/02 13:20:03;;;;;;;21.40;14.82;;;;;;;;;;5081737;28;20061;-74
2022/08/02 13:22:29;;;;;;;19.48;15.57;;;;;;;;;;5085309;28;20035;-74
2022/08/02 13:24:55;;;;;;;16.98;13.25;;;;;;;;;;5087268;28;20071;-74
2022/08/02 13:27:22;;;;;;;19.50;13.13;;;;;;;;;;5078161;28;20101;-74
2022/08/02 13:29:49;;;;;;;22.85;14.88;;;;;;;;;;5088114;28;20046;-74
2022/08/02 13:32:15;;;;;;;16.40;14.15;;;;;;;;;;5082777;28;20496;-75
2022/08/02 13:34:42;;;;;;;17.23;12.43;;;;;;;;;;5061486;28;20059;-74
2022/08/02 13:37:09;;;;;;;16.10;11.77;;;;;;;;;;5097746;28;20036;-74
2022/08/02 13:39:36;;;;;;;15.52;12.15;;;;;;;;;;5086177;28;20052;-74
2022/08/02 13:42:02;;;;;;;14.68;11.65;;;;;;;;;;5097719;27;20040;-74
2022/08/02 13:44:28;;;;;;;18.90;13.18;;;;;;;;;;5106102;28;20040;-74
2022/08/02 13:46:55;;;;;;;14.38;11.38;;;;;;;;;;5084782;28;20043;-74
2022/08/02 13:49:21;;;;;;;14.77;10.30;;;;;;;;;;5071882;28;20040;-74
2022/08/02 13:51:47;;;;;;;14.00;9.38;;;;;;;;;;5087667;28;20082;-74
2022/08/02 13:54:14;;;;;;;13.48;10.50;;;;;;;;;;5085703;28;20427;-74
2022/08/02 13:56:40;;;;;;;16.42;11.05;;;;;;;;;;5105745;28;20059;-74
2022/08/02 13:59:06;;;;;;;17.08;12.02;;;;;;;;;;5082081;28;20163;-74
2022/08/02 14:01:32;;;;;;;14.52;11.43;;;;;;;;;;5071646;28;20066;-74
2022/08/02 14:03:59;;;;;;;16.67;10.70;;;;;;;;;;5099816;28;20123;-73
2022/08/02 14:06:26;;;;;;;15.93;9.88;;;;;;;;;;5083841;28;20076;-74
2022/08/02 14:08:52;;;;;;;14.15;10.20;;;;;;;;;;5097218;28;20044;-74
2022/08/02 14:11:18;;;;;;;10.85;9.75;;;;;;;;;;5075488;28;20071;-74
2022/08/02 14:13:45;;;;;;;12.55;9.50;;;;;;;;;;5100235;28;20055;-74
2022/08/02 14:16:11;;;;;;;13.27;9.95;;;;;;;;;;5100931;28;20135;-75
2022/08/02 14:18:37;;;;;;;13.57;10.45;;;;;;;;;;5085561;28;20055;-74
2022/08/02 14:21:03;;;;;;;13.90;11.05;;;;;;;;;;5079045;28;20036;-75
2022/08/02 14:23:31;;;;;;;13.63;11.05;;;;;;;;;;5104400;28;20031;-74
2022/08/02 14:25:57;;;;;;;13.35;10.68;;;;;;;;;;5074577;28;20044;-74
2022/08/02 14:28:24;;;;;;;14.38;10.80;;;;;;;;;;5087719;28;20040;-75
2022/08/02 14:30:50;;;;;;;15.98;10.13;;;;;;;;;;5085994;28;20047;-74
2022/08/02 14:33:17;;;;;;;15.93;10.63;;;;;;;;;;5081159;28;20036;-74
2022/08/02 14:35:44;;;;;;;14.73;9.52;;;;;;;;;;5078711;28;20034;-74
2022/08/02 14:38:10;;;;;;;10.88;8.45;;;;;;;;;;5061958;28;20068;-74
2022/08/02 14:40:36;;;;;;;16.17;8.60;;;;;;;;;;5083111;28;20036;-74
2022/08/02 14:43:03;;;;;;;14.52;8.32;;;;;;;;;;5086909;28;20055;-74